Time;durP1;ratioP1;P1;durP2;ratioP2;P2;SDS_P1;SDS_P2;PMS_P1;PMS_P2;Temp;Humidity;BMP_temperature;BMP_pressure;BME280_temperature;BME280_humidity;BME280_pressure;Samples;Min_cycle;Max_cycle;Signal;HPM_P1;HPM_P2
2023/01/23 00:00:24;;;;;;;141.07;76.93;;;;;;;1.64;100.00;101238.47;5113815;28;20111;-76
2023/01/23 00:02:50;;;;;;;85.90;44.40;;;;;;;1.61;100.00;101235.88;5113787;28;20080;-76
2023/01/23 00:05:15;;;;;;;75.32;36.78;;;;;;;1.48;100.00;101212.56;5113844;28;20094;-76
2023/01/23 00:07:40;;;;;;;68.05;35.45;;;;;;;1.37;100.00;101220.94;5113451;28;20020;-76
2023/01/23 00:10:06;;;;;;;96.00;49.40;;;;;;;1.55;100.00;101248.59;5113649;28;20028;-76
2023/01/23 00:12:32;;;;;;;91.55;45.03;;;;;;;1.59;100.00;101211.84;5113575;28;20518;-76
2023/01/23 00:14:57;;;;;;;75.70;40.13;;;;;;;1.54;100.00;101209.22;5113759;28;20031;-76
2023/01/23 00:17:26;;;;;;;177.38;98.82;;;;;;;1.35;100.00;101194.38;5113419;28;20058;-76
2023/01/23 00:19:52;;;;;;;78.20;39.30;;;;;;;1.48;100.00;101234.81;5113527;28;20547;-76
2023/01/23 00:22:18;;;;;;;78.28;37.47;;;;;;;1.50;100.00;101253.66;5112801;28;20160;-76
2023/01/23 00:24:43;;;;;;;74.35;38.05;;;;;;;1.46;100.00;101233.91;5113173;28;20027;-76
2023/01/23 00:27:08;;;;;;;96.50;49.95;;;;;;;1.61;100.00;101252.13;5113358;28;20043;-76
2023/01/23 00:29:34;;;;;;;76.30;38.95;;;;;;;1.41;100.00;101227.84;5113180;28;20023;-76
2023/01/23 00:31:59;;;;;;;80.97;37.75;;;;;;;1.61;100.00;101253.84;5113351;28;20034;-76
2023/01/23 00:34:24;;;;;;;78.28;38.53;;;;;;;1.69;100.00;101257.41;5112989;28;20020;-76
2023/01/23 00:36:50;;;;;;;82.72;38.80;;;;;;;1.48;100.00;101235.69;5113208;28;20031;-76
2023/01/23 00:39:20;;;;;;;80.32;37.42;;;;;;;1.49;100.00;101262.22;5113252;28;20027;-76
2023/01/23 00:41:46;;;;;;;97.40;40.83;;;;;;;1.39;100.00;101224.38;5113163;28;20029;-76
2023/01/23 00:44:12;;;;;;;81.13;39.50;;;;;;;1.41;100.00;101231.28;5113118;28;20502;-76
2023/01/23 00:46:38;;;;;;;99.35;45.85;;;;;;;1.47;100.00;101253.59;5112876;28;20076;-76
2023/01/23 00:49:03;;;;;;;82.55;39.70;;;;;;;1.57;100.00;101245.22;5113211;28;20032;-76
2023/01/23 00:51:29;;;;;;;95.10;43.58;;;;;;;1.66;100.00;101255.63;5112736;28;20027;-76
2023/01/23 00:53:54;;;;;;;87.80;41.30;;;;;;;1.44;100.00;101215.06;5113041;28;20375;-76
2023/01/23 00:56:19;;;;;;;102.13;46.10;;;;;;;1.61;100.00;101236.72;5112818;27;20085;-76
2023/01/23 00:58:45;;;;;;;100.18;44.25;;;;;;;1.42;100.00;101217.59;5112558;28;20055;-76
2023/01/23 01:01:11;;;;;;;83.22;38.38;;;;;;;1.18;100.00;101230.91;5112819;28;20031;-76
2023/01/23 01:03:36;;;;;;;83.93;41.60;;;;;;;1.25;100.00;101229.28;5112517;28;20479;-76
2023/01/23 01:06:02;;;;;;;87.75;42.10;;;;;;;1.21;100.00;101232.66;5112633;28;20034;-76
2023/01/23 01:08:27;;;;;;;84.30;42.55;;;;;;;1.37;100.00;101264.56;5112345;28;20107;-76
2023/01/23 01:10:53;;;;;;;146.25;60.22;;;;;;;1.45;100.00;101256.16;5112773;28;20030;-76
2023/01/23 01:13:20;;;;;;;90.35;39.53;;;;;;;1.33;100.00;101243.13;5112719;28;20063;-76
2023/01/23 01:15:47;;;;;;;92.65;41.33;;;;;;;1.46;100.00;101250.19;5112268;28;20059;-76
2023/01/23 01:18:13;;;;;;;121.00;49.03;;;;;;;1.41;100.00;101243.25;5112588;28;20066;-76
2023/01/23 01:20:42;;;;;;;85.22;38.47;;;;;;;1.37;100.00;101252.59;5112055;28;20047;-76
2023/01/23 01:23:08;;;;;;;77.97;38.58;;;;;;;1.17;100.00;101256.53;5112610;28;20019;-76
2023/01/23 01:25:33;;;;;;;99.18;41.25;;;;;;;1.25;100.00;101263.53;5112380;28;20382;-76
2023/01/23 01:27:59;;;;;;;122.28;58.03;;;;;;;1.57;100.00;101280.31;5112787;28;20463;-76
2023/01/23 01:30:25;;;;;;;76.50;38.08;;;;;;;1.42;100.00;101266.38;5112088;28;20027;-76
2023/01/23 01:32:53;;;;;;;136.45;53.20;;;;;;;1.48;100.00;101284.47;5112137;28;20055;-76
2023/01/23 01:35:19;;;;;;;118.00;57.60;;;;;;;1.34;100.00;101262.81;5112239;28;20035;-76
2023/01/23 01:37:45;;;;;;;87.13;41.05;;;;;;;1.57;100.00;101298.28;5112290;28;20035;-76
2023/01/23 01:40:18;;;;;;;99.53;45.90;;;;;;;1.48;100.00;101263.91;5112398;28;20106;-76
2023/01/23 01:42:51;;;;;;;100.95;42.60;;;;;;;1.44;100.00;101284.38;5111916;28;20027;-76
2023/01/23 01:45:54;;;;;;;89.68;41.45;;;;;;;1.39;100.00;101278.28;5112241;28;20023;-76
2023/01/23 01:48:23;;;;;;;91.10;40.97;;;;;;;1.50;100.00;101281.91;5112372;28;20080;-76
2023/01/23 01:50:48;;;;;;;85.20;39.97;;;;;;;1.45;100.00;101294.66;5111869;28;20493;-76
2023/01/23 01:53:14;;;;;;;88.32;40.20;;;;;;;1.42;100.00;101286.06;5112130;28;20020;-76
2023/01/23 01:55:40;;;;;;;89.97;40.50;;;;;;;1.32;100.00;101304.72;5111965;28;20064;-76
2023/01/23 01:58:06;;;;;;;110.70;40.25;;;;;;;1.11;100.00;101272.69;5111927;28;20039;-76
2023/01/23 02:00:32;;;;;;;94.97;42.55;;;;;;;1.35;100.00;101304.75;5111697;28;20068;-76
2023/01/23 02:03:00;;;;;;;100.43;46.67;;;;;;;1.44;100.00;101290.38;5112133;28;20024;-76
2023/01/23 02:05:29;;;;;;;97.95;45.72;;;;;;;1.36;100.00;101314.19;5112090;28;20031;-76
2023/01/23 02:08:04;;;;;;;104.13;42.22;;;;;;;1.26;100.00;101292.63;5112149;28;20081;-76
2023/01/23 02:10:32;;;;;;;107.38;43.47;;;;;;;1.47;100.00;101312.66;5111764;28;20023;-76
2023/01/23 02:13:21;;;;;;;101.25;43.58;;;;;;;1.36;100.00;101315.06;5111896;28;20028;-76
2023/01/23 02:15:47;;;;;;;98.68;42.75;;;;;;;1.39;100.00;101325.41;5111990;28;20118;-76
2023/01/23 02:18:13;;;;;;;96.20;42.95;;;;;;;1.06;100.00;101302.53;5112162;28;20102;-76
2023/01/23 02:20:39;;;;;;;109.88;46.20;;;;;;;1.25;100.00;101329.41;5111823;28;20036;-76
2023/01/23 02:23:19;;;;;;;96.00;44.70;;;;;;;1.16;100.00;101340.34;5111850;28;20024;-76
2023/01/23 02:25:52;;;;;;;95.30;44.47;;;;;;;1.43;100.00;101333.97;5111752;28;20036;-76
2023/01/23 02:28:17;;;;;;;105.40;46.05;;;;;;;1.16;100.00;101295.88;5112062;28;20433;-76
2023/01/23 02:30:45;;;;;;;112.15;46.40;;;;;;;1.21;100.00;101301.94;5111656;28;20024;-76
2023/01/23 02:33:21;;;;;;;120.20;47.85;;;;;;;1.37;100.00;101342.47;5111859;28;20019;-76
2023/01/23 02:35:46;;;;;;;106.50;45.78;;;;;;;1.27;100.00;101309.78;5111387;28;20031;-76
2023/01/23 02:38:16;;;;;;;115.00;45.38;;;;;;;1.48;100.00;101337.53;5111865;28;20030;-76
2023/01/23 02:40:42;;;;;;;102.13;44.50;;;;;;;1.40;100.00;101309.16;5111685;28;20371;-76
2023/01/23 02:43:21;;;;;;;102.70;44.63;;;;;;;1.32;100.00;101318.41;5111856;28;20035;-76
2023/01/23 02:45:47;;;;;;;101.88;46.22;;;;;;;1.46;100.00;101345.19;5113428;28;20032;-76
2023/01/23 02:48:12;;;;;;;98.82;43.60;;;;;;;1.52;100.00;101341.88;5115468;28;20027;-76
2023/01/23 02:50:38;;;;;;;107.93;52.78;;;;;;;1.65;100.00;101350.66;5115234;28;20058;-76
2023/01/23 02:53:04;;;;;;;123.88;55.50;;;;;;;1.54;100.00;101353.03;5115293;28;20471;-76
2023/01/23 02:55:31;;;;;;;137.85;56.05;;;;;;;1.45;100.00;101345.16;5114990;28;20123;-76
2023/01/23 03:00:14;;;;;;;156.95;69.57;;;;;;;1.67;100.00;101362.66;5114909;28;20375;-76
2023/01/23 03:00:42;;;;;;;149.60;55.72;;;;;;;1.52;100.00;101333.28;5114793;28;20390;-76
2023/01/23 03:03:08;;;;;;;127.80;52.90;;;;;;;1.55;100.00;101357.31;5114860;28;20016;-76
2023/01/23 03:05:34;;;;;;;140.07;70.60;;;;;;;1.66;100.00;101360.09;5114977;28;20153;-76
2023/01/23 03:07:59;;;;;;;126.88;50.67;;;;;;;1.49;100.00;101344.38;5114950;28;20057;-76
2023/01/23 03:10:24;;;;;;;103.40;48.40;;;;;;;1.43;100.00;101322.03;5115088;28;20106;-76
2023/01/23 03:12:49;;;;;;;113.63;49.63;;;;;;;1.72;100.00;101365.31;5114763;28;20039;-76
2023/01/23 03:15:15;;;;;;;140.55;51.55;;;;;;;1.69;100.00;101368.72;5114785;28;20023;-76
2023/01/23 03:17:40;;;;;;;119.57;52.25;;;;;;;1.64;100.00;101375.44;5114742;28;20027;-76
2023/01/23 03:20:06;;;;;;;107.43;48.35;;;;;;;1.65;100.00;101359.22;5114845;28;20387;-76
2023/01/23 03:22:31;;;;;;;116.90;57.92;;;;;;;1.86;100.00;101381.84;5114436;28;20082;-76
2023/01/23 03:24:57;;;;;;;107.10;46.35;;;;;;;1.81;100.00;101372.31;5114514;28;20024;-76
2023/01/23 03:27:23;;;;;;;125.55;53.88;;;;;;;1.73;100.00;101346.50;5114603;28;20482;-76
2023/01/23 03:32:32;;;;;;;113.05;50.08;;;;;;;1.75;100.00;101376.50;5114266;28;20092;-77
2023/01/23 03:34:58;;;;;;;105.40;44.28;;;;;;;1.70;100.00;101342.19;5114362;28;20015;-76
2023/01/23 03:37:24;;;;;;;110.38;51.40;;;;;;;1.61;100.00;101336.03;5114388;28;20038;-76
2023/01/23 03:42:34;;;;;;;97.68;43.35;;;;;;;1.47;100.00;101339.19;5113924;28;20088;-77
2023/01/23 03:44:59;;;;;;;102.97;44.83;;;;;;;1.67;100.00;101370.38;5114372;28;20024;-76
2023/01/23 03:47:25;;;;;;;103.78;45.22;;;;;;;1.50;100.00;101361.50;5114133;28;20500;-76
2023/01/23 03:49:51;;;;;;;109.25;47.15;;;;;;;1.62;100.00;101377.13;5114017;28;20028;-76
2023/01/23 03:52:17;;;;;;;100.57;45.75;;;;;;;1.39;100.00;101376.75;5114247;28;20036;-76
2023/01/23 03:54:42;;;;;;;98.15;46.10;;;;;;;1.44;100.00;101372.53;5113845;28;20407;-76
2023/01/23 03:57:08;;;;;;;112.85;48.35;;;;;;;1.40;100.00;101357.06;5113844;28;20036;-76
2023/01/23 03:59:33;;;;;;;118.53;46.45;;;;;;;1.39;100.00;101347.59;5113549;28;20027;-76
2023/01/23 04:02:00;;;;;;;113.75;46.65;;;;;;;1.54;100.00;101372.69;5113963;28;20034;-76
2023/01/23 04:04:25;;;;;;;110.10;44.88;;;;;;;1.59;100.00;101378.78;5114018;27;20112;-76
2023/01/23 04:06:51;;;;;;;106.40;48.03;;;;;;;1.63;100.00;101376.28;5113585;28;20094;-76
2023/01/23 04:09:17;;;;;;;106.85;47.47;;;;;;;1.62;100.00;101360.88;5113767;28;20027;-76
2023/01/23 04:11:42;;;;;;;109.70;47.95;;;;;;;1.66;100.00;101365.22;5113595;28;20063;-77
2023/01/23 04:14:07;;;;;;;113.38;48.15;;;;;;;1.81;100.00;101380.88;5112498;28;20028;-76
2023/01/23 04:16:33;;;;;;;129.35;58.80;;;;;;;1.88;100.00;101376.72;5113777;28;20093;-76
2023/01/23 04:18:58;;;;;;;139.45;62.25;;;;;;;1.86;100.00;101379.28;5113508;28;20024;-76
2023/01/23 04:21:24;;;;;;;142.65;66.80;;;;;;;1.79;100.00;101359.44;5113515;28;20130;-76
2023/01/23 04:23:49;;;;;;;118.75;54.03;;;;;;;1.89;100.00;101381.88;5113155;28;20022;-76
2023/01/23 04:26:14;;;;;;;118.40;52.15;;;;;;;1.79;100.00;101359.44;5113354;28;20031;-76
2023/01/23 04:28:40;;;;;;;92.90;42.50;;;;;;;1.63;100.00;101372.84;5113003;28;20024;-76
2023/01/23 04:31:05;;;;;;;107.15;43.95;;;;;;;1.40;100.00;101345.09;5113327;27;20507;-76
2023/01/23 04:33:31;;;;;;;103.07;45.13;;;;;;;1.64;100.00;101361.75;5113339;28;20026;-77
2023/01/23 04:36:01;;;;;;;100.80;42.25;;;;;;;1.75;100.00;101365.38;5112961;28;20024;-76
2023/01/23 04:38:28;;;;;;;95.68;43.00;;;;;;;1.35;100.00;101351.84;5113070;28;20027;-76
2023/01/23 04:40:54;;;;;;;103.22;46.58;;;;;;;1.52;100.00;101369.22;5113345;27;20028;-76
2023/01/23 04:43:20;;;;;;;159.10;65.25;;;;;;;1.59;100.00;101356.53;5113303;28;20093;-76
2023/01/23 04:45:45;;;;;;;123.03;48.65;;;;;;;1.34;100.00;101367.19;5113326;28;20211;-77
2023/01/23 04:48:11;;;;;;;122.40;53.50;;;;;;;1.45;100.00;101369.13;5113135;28;20055;-76
2023/01/23 04:50:37;;;;;;;113.72;49.50;;;;;;;1.57;100.00;101378.75;5112717;28;20027;-76
2023/01/23 04:53:03;;;;;;;100.85;45.38;;;;;;;1.42;100.00;101371.63;5112913;28;20431;-76
2023/01/23 04:55:29;;;;;;;97.95;44.50;;;;;;;1.24;100.00;101361.91;5112798;28;20452;-76
2023/01/23 04:57:54;;;;;;;107.65;44.30;;;;;;;1.50;100.00;101395.75;5112750;28;20023;-76
2023/01/23 05:00:20;;;;;;;101.90;45.80;;;;;;;1.63;100.00;101399.41;5112969;28;20503;-76
2023/01/23 05:02:46;;;;;;;118.03;45.97;;;;;;;1.52;100.00;101408.63;5112513;28;20015;-76
2023/01/23 05:05:12;;;;;;;117.30;46.72;;;;;;;1.22;100.00;101363.59;5112658;28;20107;-76
2023/01/23 05:07:38;;;;;;;117.03;51.97;;;;;;;1.47;100.00;101377.72;5112024;28;20056;-76
2023/01/23 05:10:04;;;;;;;114.65;48.90;;;;;;;1.41;100.00;101397.28;5112609;28;20027;-76
2023/01/23 05:12:30;;;;;;;127.82;49.78;;;;;;;1.48;100.00;101389.75;5112546;28;20030;-76
2023/01/23 05:14:55;;;;;;;121.38;48.90;;;;;;;1.73;100.00;101411.59;5112253;28;20031;-76
2023/01/23 05:17:20;;;;;;;117.22;45.92;;;;;;;1.40;100.00;101386.16;5112531;28;20397;-76
2023/01/23 05:19:46;;;;;;;125.57;50.67;;;;;;;1.33;100.00;101415.13;5112338;28;20167;-76
2023/01/23 05:22:11;;;;;;;117.50;47.55;;;;;;;1.46;100.00;101417.06;5112529;28;20043;-76
2023/01/23 05:24:36;;;;;;;124.20;49.50;;;;;;;1.48;100.00;101412.84;5112470;28;20108;-76
2023/01/23 05:27:02;;;;;;;165.35;51.47;;;;;;;1.05;100.00;101374.34;5112370;28;20066;-76
2023/01/23 05:29:27;;;;;;;127.32;53.75;;;;;;;1.12;100.00;101422.38;5112543;28;20429;-76
2023/01/23 05:31:53;;;;;;;137.15;54.70;;;;;;;1.14;100.00;101433.56;5112227;28;20103;-76
2023/01/23 05:34:18;;;;;;;142.77;53.08;;;;;;;1.09;100.00;101428.31;5112417;28;20049;-76
2023/01/23 05:36:43;;;;;;;137.98;51.03;;;;;;;1.09;100.00;101437.72;5112138;28;20063;-76
2023/01/23 05:39:08;;;;;;;118.28;48.80;;;;;;;1.12;100.00;101438.66;5112266;28;20023;-76
2023/01/23 05:41:34;;;;;;;141.00;53.28;;;;;;;1.06;100.00;101422.28;5112438;28;20383;-76
2023/01/23 05:43:59;;;;;;;158.40;52.00;;;;;;;0.98;100.00;101428.09;5112192;28;20055;-76
2023/01/23 05:46:24;;;;;;;161.07;52.15;;;;;;;1.01;100.00;101458.06;5112320;28;20403;-76
2023/01/23 05:48:51;;;;;;;150.15;50.50;;;;;;;0.98;100.00;101437.50;5110758;28;20031;-76
2023/01/23 05:51:17;;;;;;;138.07;51.30;;;;;;;1.07;100.00;101465.94;5112243;28;20055;-76
2023/01/23 05:53:43;;;;;;;135.75;50.65;;;;;;;1.22;100.00;101473.06;5111954;28;20102;-76
2023/01/23 05:56:09;;;;;;;132.80;50.90;;;;;;;1.22;100.00;101473.94;5111080;28;20053;-75
2023/01/23 05:58:34;;;;;;;137.18;49.83;;;;;;;1.10;100.00;101444.59;5112151;28;20027;-75
2023/01/23 06:01:02;;;;;;;148.00;59.45;;;;;;;0.95;100.00;101422.91;5111985;28;20058;-75
2023/01/23 06:03:27;;;;;;;131.35;50.42;;;;;;;1.22;100.00;101471.38;5112008;28;20065;-75
2023/01/23 06:05:53;;;;;;;140.32;51.08;;;;;;;1.10;100.00;101455.72;5112108;28;20031;-75
2023/01/23 06:08:18;;;;;;;149.52;51.83;;;;;;;1.20;100.00;101464.47;5111940;28;20028;-75
2023/01/23 06:10:44;;;;;;;137.23;51.58;;;;;;;1.20;100.00;101467.03;5111813;28;20020;-75
2023/01/23 06:13:09;;;;;;;142.13;52.53;;;;;;;1.32;100.00;101480.13;5112114;28;20031;-75
2023/01/23 06:15:35;;;;;;;145.55;50.40;;;;;;;1.21;100.00;101463.63;5111921;28;20028;-75
2023/01/23 06:18:00;;;;;;;134.90;51.63;;;;;;;1.36;100.00;101461.41;5111871;28;20035;-75
2023/01/23 06:20:26;;;;;;;135.52;54.15;;;;;;;1.38;100.00;101463.97;5113531;28;20379;-75
2023/01/23 06:22:51;;;;;;;222.10;85.32;;;;;;;1.31;100.00;101491.25;5115290;27;20399;-75
2023/01/23 06:25:19;;;;;;;198.38;70.13;;;;;;;1.20;100.00;101498.72;5116063;27;20024;-75
2023/01/23 06:27:45;;;;;;;151.52;54.20;;;;;;;1.17;100.00;101495.19;5115678;28;20171;-75
2023/01/23 06:30:11;;;;;;;124.57;50.55;;;;;;;1.21;100.00;101479.91;5115651;28;20142;-83
2023/01/23 06:32:36;;;;;;;143.38;54.78;;;;;;;1.04;100.00;101447.03;5115670;28;20039;-84
2023/01/23 06:35:02;;;;;;;136.90;51.15;;;;;;;1.36;100.00;101502.47;5115363;28;20027;-83
2023/01/23 06:37:27;;;;;;;144.73;53.70;;;;;;;1.36;100.00;101511.88;5115406;28;20025;-83
2023/01/23 06:39:53;;;;;;;133.48;53.00;;;;;;;1.26;100.00;101505.66;5115593;28;20111;-84
2023/01/23 06:42:18;;;;;;;126.00;48.40;;;;;;;1.39;100.00;101535.03;5115537;28;20015;-83
2023/01/23 06:44:43;;;;;;;114.63;45.72;;;;;;;1.37;100.00;101531.56;5115141;28;20387;-83
2023/01/23 06:47:09;;;;;;;135.18;55.70;;;;;;;1.47;100.00;101525.78;5115498;28;20063;-82
2023/01/23 06:49:34;;;;;;;123.57;48.40;;;;;;;1.38;100.00;101539.28;5115735;28;20032;-72
2023/01/23 06:51:59;;;;;;;139.13;52.47;;;;;;;1.30;100.00;101545.09;5114567;28;20135;-72
2023/01/23 06:54:25;;;;;;;139.38;49.95;;;;;;;0.89;100.00;101517.72;5115671;28;20037;-72
2023/01/23 06:56:50;;;;;;;134.98;55.83;;;;;;;0.98;100.00;101556.41;5115095;28;20027;-72
2023/01/23 06:59:16;;;;;;;122.85;49.00;;;;;;;1.16;100.00;101547.38;5115124;28;20119;-72
2023/01/23 07:01:41;;;;;;;128.38;50.53;;;;;;;1.09;100.00;101523.25;5115055;28;20106;-72
2023/01/23 07:04:09;;;;;;;123.88;48.50;;;;;;;1.43;100.00;101544.53;5114850;28;20053;-73
2023/01/23 07:06:35;;;;;;;124.28;47.35;;;;;;;1.13;100.00;101531.91;5114898;28;20020;-72
2023/01/23 07:09:00;;;;;;;109.15;45.30;;;;;;;1.08;100.00;101528.38;5114842;28;20058;-72
2023/01/23 07:11:26;;;;;;;117.15;46.92;;;;;;;1.12;100.00;101536.16;5115291;28;20020;-72
2023/01/23 07:13:52;;;;;;;119.78;50.58;;;;;;;1.36;100.00;101540.13;5114677;28;20030;-72
2023/01/23 07:16:18;;;;;;;118.72;50.58;;;;;;;1.41;100.00;101557.34;5114959;28;20015;-72
2023/01/23 07:18:43;;;;;;;121.18;49.38;;;;;;;1.44;100.00;101561.69;5114794;28;20459;-72
2023/01/23 07:21:08;;;;;;;114.10;45.45;;;;;;;1.18;100.00;101525.16;5114099;28;20475;-72
2023/01/23 07:23:34;;;;;;;116.20;46.70;;;;;;;1.43;100.00;101539.38;5114823;28;20508;-72
2023/01/23 07:26:08;;;;;;;106.85;45.30;;;;;;;1.35;100.00;101546.06;5114557;27;20031;-72
2023/01/23 07:28:37;;;;;;;111.60;42.53;;;;;;;1.43;100.00;101552.22;5114619;28;20027;-72
2023/01/23 07:31:03;;;;;;;109.30;43.95;;;;;;;1.12;100.00;101536.16;5113906;28;20028;-72
2023/01/23 07:33:28;;;;;;;116.80;45.40;;;;;;;1.24;100.00;101533.00;5114583;28;20024;-72
2023/01/23 07:35:54;;;;;;;123.18;49.67;;;;;;;1.44;100.00;101564.25;5114169;28;20114;-72
2023/01/23 07:38:22;;;;;;;117.30;46.72;;;;;;;1.39;100.00;101573.53;5114419;28;20039;-72
2023/01/23 07:40:48;;;;;;;117.75;46.90;;;;;;;1.38;100.00;101572.66;5114272;28;20392;-72
2023/01/23 07:43:13;;;;;;;118.25;50.47;;;;;;;1.43;100.00;101544.53;5113005;28;20020;-72
2023/01/23 07:45:38;;;;;;;103.82;45.08;;;;;;;1.59;100.00;101573.97;5114296;28;20030;-72
2023/01/23 07:48:04;;;;;;;124.80;50.78;;;;;;;1.51;100.00;101550.69;5113970;27;20023;-72
2023/01/23 07:50:29;;;;;;;126.50;44.90;;;;;;;1.50;100.00;101554.09;5114014;28;20027;-72
2023/01/23 07:52:54;;;;;;;108.78;47.50;;;;;;;1.79;100.00;101587.22;5114005;27;20034;-72
2023/01/23 07:55:20;;;;;;;152.85;60.10;;;;;;;1.31;100.00;101559.69;5114108;28;20063;-72
2023/01/23 07:57:46;;;;;;;113.05;45.72;;;;;;;1.10;100.00;101594.31;5113962;28;20051;-72
2023/01/23 08:00:11;;;;;;;121.57;46.10;;;;;;;0.74;100.00;101572.06;5113727;28;20036;-72
2023/01/23 08:02:37;;;;;;;104.47;44.50;;;;;;;0.65;100.00;101592.38;5113827;28;20019;-72
2023/01/23 08:05:03;;;;;;;129.38;47.15;;;;;;;0.46;100.00;101583.34;5113496;28;20019;-72
2023/01/23 08:07:28;;;;;;;181.77;76.13;;;;;;;0.38;100.00;101596.78;5113615;28;20035;-72
2023/01/23 08:09:54;;;;;;;392.08;144.90;;;;;;;0.19;100.00;101574.94;5113639;28;20027;-72
2023/01/23 08:12:19;;;;;;;168.85;66.75;;;;;;;0.31;100.00;101600.88;5113804;28;20084;-72
2023/01/23 08:14:46;;;;;;;151.15;59.95;;;;;;;0.06;100.00;101555.81;5113723;27;20028;-72
2023/01/23 08:17:11;;;;;;;131.40;52.17;;;;;;;0.38;100.00;101607.94;5113623;28;20509;-72
2023/01/23 08:19:37;;;;;;;132.20;47.85;;;;;;;0.42;100.00;101604.63;5113684;28;20036;-72
2023/01/23 08:22:02;;;;;;;124.22;46.42;;;;;;;0.46;100.00;101608.09;5113290;28;20438;-72
2023/01/23 08:24:27;;;;;;;131.93;50.85;;;;;;;0.48;100.00;101611.59;5113461;28;20032;-72
2023/01/23 08:26:53;;;;;;;134.73;56.15;;;;;;;0.42;100.00;101612.31;5113552;27;20027;-72
2023/01/23 08:29:18;;;;;;;120.00;44.65;;;;;;;0.52;100.00;101608.28;5113450;28;20455;-72
2023/01/23 08:31:43;;;;;;;118.80;49.05;;;;;;;0.30;100.00;101578.66;5113590;28;20039;-72
2023/01/23 08:34:09;;;;;;;148.25;68.90;;;;;;;0.21;100.00;101556.22;5112956;28;20019;-72
2023/01/23 08:36:34;;;;;;;122.43;51.38;;;;;;;0.59;100.00;101602.47;5113442;28;20032;-72
2023/01/23 08:38:59;;;;;;;118.00;48.85;;;;;;;0.29;100.00;101558.97;5113107;28;20035;-72
2023/01/23 08:41:25;;;;;;;221.98;118.32;;;;;;;0.42;100.00;101578.09;5113195;28;20029;-72
2023/01/23 08:43:50;;;;;;;140.98;63.05;;;;;;;0.56;100.00;101591.28;5112399;28;20019;-72
2023/01/23 08:46:16;;;;;;;119.97;47.40;;;;;;;0.66;100.00;101588.09;5113082;28;20028;-72
2023/01/23 08:48:41;;;;;;;142.45;48.83;;;;;;;0.62;100.00;101555.50;5112941;28;20103;-72
2023/01/23 08:51:09;;;;;;;122.78;48.28;;;;;;;0.93;100.00;101616.13;5113296;28;20032;-72
2023/01/23 08:53:35;;;;;;;112.47;45.63;;;;;;;0.93;100.00;101613.56;5111705;28;20031;-72
2023/01/23 08:56:27;;;;;;;132.15;60.05;;;;;;;1.02;100.00;101618.06;5112749;28;20466;-72
2023/01/23 08:58:53;;;;;;;155.43;68.97;;;;;;;0.97;100.00;101615.38;5049380;28;20179;-72
2023/01/23 09:01:21;;;;;;;214.98;65.32;;;;;;;0.89;100.00;101589.53;5049518;28;20073;-72
2023/01/23 09:03:47;;;;;;;169.02;63.85;;;;;;;1.00;100.00;101607.72;5049675;28;20033;-72
2023/01/23 09:06:14;;;;;;;151.10;58.72;;;;;;;1.00;100.00;101618.00;5048891;28;20493;-72
2023/01/23 09:08:39;;;;;;;208.80;69.65;;;;;;;0.94;100.00;101618.72;5048098;28;20366;-72
2023/01/23 09:11:07;;;;;;;152.93;56.05;;;;;;;1.04;100.00;101596.72;5047810;28;20045;-72
2023/01/23 09:13:32;;;;;;;213.38;69.47;;;;;;;1.28;100.00;101606.69;5048179;28;20021;-72
2023/01/23 09:15:58;;;;;;;134.50;54.53;;;;;;;1.27;100.00;101610.09;5048308;28;20045;-72
2023/01/23 09:18:24;;;;;;;175.55;73.95;;;;;;;1.29;100.00;101605.84;5045409;28;20025;-72
2023/01/23 09:20:51;;;;;;;151.85;66.25;;;;;;;1.44;100.00;101613.91;5047731;28;20060;-72
2023/01/23 09:23:16;;;;;;;168.15;59.22;;;;;;;1.25;100.00;101604.91;5047697;28;20116;-71
2023/01/23 09:25:42;;;;;;;139.18;61.00;;;;;;;1.47;100.00;101631.91;5047997;28;20676;-72
2023/01/23 09:28:07;;;;;;;146.55;58.60;;;;;;;1.40;100.00;101624.06;5047758;28;20036;-71
2023/01/23 09:30:33;;;;;;;133.15;57.03;;;;;;;1.37;100.00;101630.00;5049466;28;20183;-74
2023/01/23 09:32:58;;;;;;;127.13;52.97;;;;;;;1.32;100.00;101623.91;5049448;28;20554;-71
2023/01/23 09:35:23;;;;;;;149.52;59.67;;;;;;;1.40;100.00;101627.50;5073548;28;20032;-72
2023/01/23 09:37:58;;;;;;;155.70;62.58;;;;;;;1.28;100.00;101608.38;5112436;28;20026;-72
2023/01/23 09:40:25;;;;;;;260.25;91.72;;;;;;;1.39;100.00;101623.22;5112337;28;20031;-72
2023/01/23 09:42:52;;;;;;;180.23;63.90;;;;;;;1.45;100.00;101637.88;5112056;28;20579;-72
2023/01/23 09:45:21;;;;;;;162.95;65.53;;;;;;;1.43;100.00;101631.81;5112259;28;20063;-72
2023/01/23 09:48:17;;;;;;;121.28;49.70;;;;;;;1.44;100.00;101625.88;5112333;28;20379;-72
2023/01/23 09:51:11;;;;;;;126.65;57.08;;;;;;;1.51;100.00;101630.28;5112230;28;20024;-72
2023/01/23 09:53:39;;;;;;;129.65;58.00;;;;;;;1.46;100.00;101606.22;5112734;28;20494;-72
2023/01/23 09:56:29;;;;;;;132.32;59.15;;;;;;;1.70;100.00;101629.00;5116051;28;20084;-72
2023/01/23 09:59:19;;;;;;;144.30;62.67;;;;;;;1.75;100.00;101629.97;5072957;28;20051;-71
2023/01/23 10:01:45;;;;;;;112.35;47.38;;;;;;;1.60;100.00;101602.28;5073199;28;20391;-72
2023/01/23 10:04:12;;;;;;;161.90;74.45;;;;;;;1.49;100.00;101594.31;5072931;28;20033;-72
2023/01/23 10:06:51;;;;;;;121.05;51.70;;;;;;;1.62;100.00;101616.00;5073081;28;20599;-72
2023/01/23 10:09:46;;;;;;;117.55;50.17;;;;;;;1.60;100.00;101592.00;5072702;28;20056;-72
2023/01/23 10:12:43;;;;;;;132.02;59.95;;;;;;;1.76;100.00;101595.72;5072709;28;20498;-72
2023/01/23 10:15:20;;;;;;;155.50;56.70;;;;;;;1.96;100.00;101620.13;5072715;28;20557;-72
2023/01/23 10:17:48;;;;;;;152.43;57.63;;;;;;;1.54;100.00;101620.09;5072724;28;20119;-72
2023/01/23 10:20:24;;;;;;;213.50;74.35;;;;;;;1.27;100.00;101633.19;5072522;28;20028;-72
2023/01/23 10:23:04;;;;;;;145.60;53.42;;;;;;;1.24;100.00;101626.28;5072460;28;20040;-71
2023/01/23 10:25:34;;;;;;;148.48;57.50;;;;;;;0.93;100.00;101605.88;5072767;28;20035;-72
2023/01/23 10:28:14;;;;;;;145.13;58.90;;;;;;;0.72;100.00;101598.53;5072337;28;20033;-71
2023/01/23 10:30:42;;;;;;;130.73;51.47;;;;;;;0.61;100.00;101595.69;5072454;28;20075;-72
2023/01/23 10:33:12;;;;;;;173.50;76.05;;;;;;;0.67;100.00;101615.47;5072548;28;20036;-71
2023/01/23 10:35:49;;;;;;;275.92;119.60;;;;;;;0.69;100.00;101619.81;5088398;28;20043;-72
2023/01/23 10:38:25;;;;;;;150.82;60.47;;;;;;;0.53;100.00;101598.88;5115469;28;20036;-72
2023/01/23 10:43:35;;;;;;;141.80;54.75;;;;;;;0.71;100.00;101622.41;5115353;28;20035;-71
2023/01/23 10:46:07;;;;;;;196.52;80.00;;;;;;;0.56;100.00;101592.13;5115299;28;20031;-71
2023/01/23 10:48:35;;;;;;;169.73;63.38;;;;;;;0.79;100.00;101622.59;5115305;28;20023;-71
2023/01/23 10:51:02;;;;;;;154.82;54.22;;;;;;;0.74;100.00;101584.88;5115082;28;20095;-71
2023/01/23 10:53:27;;;;;;;159.25;57.97;;;;;;;0.87;100.00;101610.84;5115298;28;20510;-74
2023/01/23 10:55:57;;;;;;;150.57;53.35;;;;;;;0.95;100.00;101619.59;5115151;28;20064;-71
2023/01/23 10:58:42;;;;;;;128.77;50.78;;;;;;;1.03;100.00;101618.09;5115205;28;20031;-72
2023/01/23 11:01:25;;;;;;;156.75;62.55;;;;;;;0.82;100.00;101597.03;5114940;28;20475;-71
2023/01/23 11:03:50;;;;;;;125.65;50.70;;;;;;;0.90;100.00;101618.63;5115118;28;20059;-71
2023/01/23 11:06:17;;;;;;;162.10;55.67;;;;;;;0.61;100.00;101572.59;5113838;28;20498;-72
2023/01/23 11:08:54;;;;;;;164.25;59.45;;;;;;;0.88;100.00;101604.88;5115188;28;20027;-71
2023/01/23 11:11:21;;;;;;;151.68;56.17;;;;;;;0.80;100.00;101611.50;5114904;28;20119;-72